Time;durP1;ratioP1;P1;durP2;ratioP2;P2;SDS_P1;SDS_P2;PMS_P1;PMS_P2;Temp;Humidity;BMP_temperature;BMP_pressure;BME280_temperature;BME280_humidity;BME280_pressure;Samples;Min_cycle;Max_cycle;Signal;HPM_P1;HPM_P2
2023/07/14 00:01:58;;;;;;;6.43;3.45;;;18.30;54.10;;;;;;4978123;28;20488;-71
2023/07/14 00:04:31;;;;;;;5.32;3.20;;;17.70;57.10;;;;;;4976821;28;20038;-70
2023/07/14 00:06:59;;;;;;;6.93;3.13;;;18.00;55.90;;;;;;4982126;28;20022;-70
2023/07/14 00:09:31;;;;;;;5.78;3.33;;;17.60;57.00;;;;;;4975122;28;20039;-70
2023/07/14 00:12:00;;;;;;;5.95;3.30;;;17.60;57.50;;;;;;4983916;28;20065;-70
2023/07/14 00:14:28;;;;;;;7.03;3.60;;;17.80;58.20;;;;;;4976985;28;20015;-71
2023/07/14 00:16:56;;;;;;;7.93;3.38;;;18.50;57.00;;;;;;4982149;28;20030;-71
2023/07/14 00:19:25;;;;;;;7.47;3.60;;;18.80;56.10;;;;;;4977608;28;20033;-71
2023/07/14 00:21:53;;;;;;;8.55;3.47;;;19.70;53.50;;;;;;4979276;28;20415;-70
2023/07/14 00:24:21;;;;;;;8.68;3.60;;;19.70;53.80;;;;;;4979626;28;20116;-70
2023/07/14 00:26:55;;;;;;;10.20;5.10;;;19.40;54.70;;;;;;4979225;28;20124;-71
2023/07/14 00:29:22;;;;;;;7.95;4.07;;;19.40;53.60;;;;;;4978432;28;20109;-70
2023/07/14 00:31:50;;;;;;;9.50;3.17;;;19.50;54.50;;;;;;4983819;28;20145;-70
2023/07/14 00:34:17;;;;;;;8.85;3.10;;;20.00;53.30;;;;;;4977486;28;20027;-70
2023/07/14 00:36:45;;;;;;;10.23;2.47;;;20.20;53.80;;;;;;4981226;28;20031;-70
2023/07/14 00:39:13;;;;;;;11.55;3.20;;;20.50;52.60;;;;;;4982672;28;20144;-71
2023/07/14 00:41:40;;;;;;;7.22;2.72;;;20.70;52.50;;;;;;4982585;28;20033;-71
2023/07/14 00:44:16;;;;;;;10.82;2.67;;;21.10;50.60;;;;;;4979831;28;20046;-71
2023/07/14 00:46:45;;;;;;;7.00;2.72;;;21.10;51.30;;;;;;4977805;28;21113;-70
2023/07/14 00:49:23;;;;;;;6.25;3.00;;;21.60;50.70;;;;;;4975739;28;20077;-68
2023/07/14 00:51:51;;;;;;;5.07;2.22;;;21.80;49.70;;;;;;4978420;28;20114;-68
2023/07/14 00:54:28;;;;;;;8.18;3.47;;;21.70;50.60;;;;;;4974668;28;20026;-68
2023/07/14 00:56:56;;;;;;;12.13;6.55;;;22.10;49.10;;;;;;4977051;28;20508;-70
2023/07/14 00:59:33;;;;;;;8.93;4.00;;;22.30;49.00;;;;;;4972475;28;20049;-69
2023/07/14 01:02:28;;;;;;;11.80;6.40;;;22.80;48.90;;;;;;4974885;28;20110;-69
2023/07/14 01:05:03;;;;;;;8.45;2.72;;;22.70;48.10;;;;;;4972532;28;20046;-69
2023/07/14 01:07:42;;;;;;;14.63;7.35;;;22.40;49.30;;;;;;4978429;28;20027;-69
2023/07/14 01:10:13;;;;;;;6.70;2.45;;;22.80;48.50;;;;;;4975525;28;20526;-69
2023/07/14 01:12:43;;;;;;;7.68;3.53;;;23.70;46.50;;;;;;4973919;28;20030;-69
2023/07/14 01:15:11;;;;;;;6.80;2.95;;;23.20;47.40;;;;;;4976610;28;20033;-69
2023/07/14 01:17:39;;;;;;;8.23;2.40;;;22.90;47.20;;;;;;4979272;28;20065;-69
2023/07/14 01:20:09;;;;;;;7.13;2.55;;;23.20;47.10;;;;;;4975610;28;21837;-68
2023/07/14 01:23:07;;;;;;;7.00;2.60;;;23.40;46.70;;;;;;5003246;28;20433;-69
2023/07/14 01:26:07;;;;;;;8.32;3.15;;;23.70;46.80;;;;;;4981905;28;20130;-68
2023/07/14 01:28:35;;;;;;;7.85;2.92;;;23.70;46.30;;;;;;4979962;28;20476;-68
2023/07/14 01:31:03;;;;;;;9.88;2.70;;;24.10;45.30;;;;;;4977406;28;20077;-69
2023/07/14 01:33:30;;;;;;;7.72;3.45;;;24.50;45.30;;;;;;4982648;28;20031;-68
2023/07/14 01:36:00;;;;;;;4.78;2.22;;;24.70;44.50;;;;;;4980810;28;20026;-68
2023/07/14 01:38:29;;;;;;;7.75;1.73;;;24.70;44.80;;;;;;4980352;28;20085;-68
2023/07/14 01:40:56;;;;;;;7.47;2.38;;;24.50;44.90;;;;;;4974138;28;20046;-69
2023/07/14 01:43:24;;;;;;;4.13;1.63;;;24.70;44.00;;;;;;4976335;28;20468;-68
2023/07/14 01:46:00;;;;;;;7.40;2.72;;;24.90;43.90;;;;;;4977102;28;20064;-69
2023/07/14 01:48:38;;;;;;;3.78;1.52;;;25.00;44.50;;;;;;4979387;28;20030;-69
2023/07/14 01:51:11;;;;;;;3.70;1.55;;;25.20;44.10;;;;;;4976335;28;20434;-68
2023/07/14 01:54:02;;;;;;;4.35;1.75;;;25.60;42.10;;;;;;4979014;28;20092;-67
2023/07/14 01:56:32;;;;;;;4.72;1.60;;;25.70;42.90;;;;;;4971492;28;20030;-67
2023/07/14 01:59:16;;;;;;;5.03;1.83;;;26.20;41.50;;;;;;4973230;28;20030;-67
2023/07/14 02:01:45;;;;;;;6.47;1.98;;;26.20;41.90;;;;;;4982491;28;20113;-68
2023/07/14 02:04:24;;;;;;;5.10;1.83;;;26.10;42.00;;;;;;4974601;28;20034;-68
2023/07/14 02:06:52;;;;;;;3.35;1.60;;;25.70;42.20;;;;;;4978991;28;20034;-68
2023/07/14 02:09:23;;;;;;;4.07;1.42;;;25.70;42.30;;;;;;4976661;28;20022;-68
2023/07/14 02:11:55;;;;;;;5.65;1.90;;;25.90;42.40;;;;;;4978908;28;20552;-67
2023/07/14 02:14:28;;;;;;;5.30;1.38;;;26.50;42.10;;;;;;4973460;28;20042;-67
2023/07/14 02:17:09;;;;;;;3.13;1.35;;;27.00;40.30;;;;;;4977489;28;20026;-66
2023/07/14 02:19:37;;;;;;;5.50;1.70;;;26.60;40.50;;;;;;4979527;28;20026;-68
2023/07/14 02:22:05;;;;;;;3.17;1.50;;;25.30;42.30;;;;;;4978705;28;20019;-68
2023/07/14 02:24:33;;;;;;;4.72;1.40;;;25.50;41.80;;;;;;4983590;28;20416;-67
2023/07/14 02:27:05;;;;;;;3.65;1.70;;;25.50;42.20;;;;;;4977041;28;20023;-67
2023/07/14 02:29:35;;;;;;;5.45;1.60;;;26.10;41.60;;;;;;4975114;28;20034;-67
2023/07/14 02:32:20;;;;;;;5.45;1.50;;;26.00;42.10;;;;;;4983158;28;20029;-69
2023/07/14 02:35:00;;;;;;;3.55;1.65;;;26.20;41.50;;;;;;4977660;28;20499;-68
2023/07/14 02:38:02;;;;;;;6.10;1.40;;;26.40;40.90;;;;;;4977076;28;20034;-69
2023/07/14 02:40:37;;;;;;;7.28;1.80;;;26.30;41.50;;;;;;4974108;28;20140;-68
2023/07/14 02:43:09;;;;;;;5.63;1.70;;;26.70;41.50;;;;;;4978783;28;20485;-68
2023/07/14 02:45:47;;;;;;;4.55;1.10;;;26.60;40.40;;;;;;4972296;28;20038;-68
2023/07/14 02:48:19;;;;;;;2.55;1.10;;;26.70;40.30;;;;;;4980638;28;20045;-69
2023/07/14 02:50:46;;;;;;;2.55;0.88;;;26.90;40.20;;;;;;4978962;28;20121;-70
2023/07/14 02:53:14;;;;;;;4.57;1.35;;;26.40;39.20;;;;;;4978875;28;20014;-67
2023/07/14 02:55:41;;;;;;;3.42;1.45;;;25.90;39.20;;;;;;4979802;28;20097;-66
2023/07/14 02:58:08;;;;;;;2.95;1.00;;;25.70;40.00;;;;;;4974474;28;20535;-69
2023/07/14 03:00:36;;;;;;;1.23;0.80;;;25.40;39.20;;;;;;4973331;28;20031;-69
2023/07/14 03:03:03;;;;;;;5.35;1.50;;;25.80;41.00;;;;;;4973545;28;20673;-68
2023/07/14 03:05:30;;;;;;;2.90;0.90;;;25.50;39.90;;;;;;4972306;28;20133;-68
2023/07/14 03:07:58;;;;;;;5.68;0.98;;;24.80;40.70;;;;;;4981535;28;20510;-70
2023/07/14 03:10:25;;;;;;;2.78;0.90;;;25.00;41.00;;;;;;4972902;28;20034;-71
2023/07/14 03:12:53;;;;;;;3.33;0.98;;;25.40;40.90;;;;;;4983037;28;20566;-68
2023/07/14 03:15:21;;;;;;;3.90;0.80;;;25.20;39.10;;;;;;4969654;28;20376;-67
2023/07/14 03:17:48;;;;;;;2.83;0.73;;;25.20;38.40;;;;;;4976168;28;20042;-66
2023/07/14 03:20:16;;;;;;;5.38;0.90;;;24.70;39.00;;;;;;4971175;28;20337;-66
2023/07/14 03:22:44;;;;;;;2.38;0.90;;;24.70;39.30;;;;;;4973891;28;20038;-68
2023/07/14 03:25:11;;;;;;;2.15;0.70;;;24.70;38.80;;;;;;4973698;28;20050;-68
2023/07/14 03:27:43;;;;;;;3.05;0.70;;;24.40;38.60;;;;;;4973960;28;20047;-67
2023/07/14 03:30:11;;;;;;;2.28;0.90;;;24.00;39.90;;;;;;4979682;28;20097;-67
2023/07/14 03:32:38;;;;;;;2.67;0.80;;;23.80;40.10;;;;;;4974815;28;20030;-67
2023/07/14 03:35:07;;;;;;;2.22;0.80;;;23.70;40.30;;;;;;4985605;28;20041;-67
2023/07/14 03:37:34;;;;;;;3.63;0.93;;;23.40;40.50;;;;;;4974285;28;20031;-67
2023/07/14 03:40:02;;;;;;;2.53;0.65;;;23.50;40.80;;;;;;4967288;28;20031;-69
2023/07/14 03:42:29;;;;;;;2.60;0.77;;;23.40;41.00;;;;;;4973033;28;20065;-67
2023/07/14 03:44:56;;;;;;;4.38;0.80;;;23.40;41.40;;;;;;4975145;28;20038;-66
2023/07/14 03:47:24;;;;;;;3.60;1.08;;;23.20;41.30;;;;;;4972983;28;20039;-68
2023/07/14 03:49:51;;;;;;;2.85;0.88;;;23.20;41.60;;;;;;4989762;28;20023;-67
2023/07/14 03:52:19;;;;;;;3.25;1.00;;;23.10;41.10;;;;;;4989732;28;20034;-66
2023/07/14 03:54:47;;;;;;;4.72;0.93;;;22.90;41.90;;;;;;4990291;28;20488;-68
2023/07/14 03:57:18;;;;;;;2.78;0.80;;;22.80;42.20;;;;;;4976443;28;20034;-68
2023/07/14 03:59:45;;;;;;;1.92;0.80;;;22.80;42.00;;;;;;4977281;28;20022;-67
2023/07/14 04:02:13;;;;;;;3.30;0.75;;;22.70;42.20;;;;;;4976961;28;20026;-68
2023/07/14 04:04:40;;;;;;;5.43;1.30;;;22.70;42.30;;;;;;4994376;28;20034;-68
2023/07/14 04:07:11;;;;;;;2.15;0.70;;;22.70;42.90;;;;;;4975422;28;20061;-67
2023/07/14 04:09:38;;;;;;;5.55;1.65;;;22.60;42.60;;;;;;4976984;28;20086;-68
2023/07/14 04:12:06;;;;;;;3.42;0.98;;;22.70;43.00;;;;;;4978289;28;20049;-69
2023/07/14 04:14:35;;;;;;;2.72;0.90;;;22.70;42.90;;;;;;4977853;28;20354;-69
2023/07/14 04:17:03;;;;;;;3.35;0.98;;;22.90;42.90;;;;;;4973423;28;20399;-68
2023/07/14 04:19:30;;;;;;;2.30;1.05;;;22.80;42.70;;;;;;4970675;28;20062;-69
2023/07/14 04:21:58;;;;;;;3.45;0.70;;;22.70;42.80;;;;;;4973447;28;20109;-67
2023/07/14 04:24:26;;;;;;;1.55;0.70;;;22.60;43.50;;;;;;4986305;28;20515;-68
2023/07/14 04:26:55;;;;;;;3.58;0.63;;;22.50;42.80;;;;;;4970642;28;20034;-70
2023/07/14 04:29:23;;;;;;;2.42;0.80;;;22.50;42.90;;;;;;4975717;28;20039;-69
2023/07/14 04:31:51;;;;;;;2.47;0.65;;;22.50;43.20;;;;;;4974568;28;20030;-68
2023/07/14 04:34:18;;;;;;;3.05;0.90;;;22.50;42.80;;;;;;4974621;28;20526;-69
2023/07/14 04:36:47;;;;;;;4.70;1.02;;;22.50;42.80;;;;;;4980383;28;20352;-68
2023/07/14 04:39:14;;;;;;;1.88;0.80;;;22.60;43.40;;;;;;4981929;28;20026;-68
2023/07/14 04:41:41;;;;;;;2.75;0.80;;;22.50;43.00;;;;;;4974307;28;20026;-68
2023/07/14 04:44:13;;;;;;;1.02;0.50;;;22.50;43.10;;;;;;4973917;28;20058;-68
2023/07/14 04:46:41;;;;;;;1.30;0.63;;;22.30;43.30;;;;;;4974658;28;20087;-68
2023/07/14 04:49:10;;;;;;;3.08;0.90;;;22.30;43.80;;;;;;4972604;28;20039;-69
2023/07/14 04:51:38;;;;;;;2.60;0.75;;;22.30;43.70;;;;;;4974437;28;20035;-69
2023/07/14 04:54:07;;;;;;;3.58;1.10;;;22.30;43.60;;;;;;4972411;28;20050;-68
2023/07/14 04:56:36;;;;;;;2.47;0.73;;;22.30;44.20;;;;;;4978830;28;22112;-69
2023/07/14 04:59:05;;;;;;;4.15;1.10;;;22.30;44.00;;;;;;4976464;28;20026;-68
2023/07/14 05:01:33;;;;;;;1.38;0.65;;;22.40;43.90;;;;;;4976218;28;20125;-68
2023/07/14 05:04:00;;;;;;;5.07;1.00;;;22.30;43.80;;;;;;4979657;28;20555;-68
2023/07/14 05:06:28;;;;;;;3.63;1.15;;;22.40;44.00;;;;;;4976193;28;20034;-67
2023/07/14 05:08:55;;;;;;;3.17;0.82;;;22.30;44.10;;;;;;4982744;28;20054;-69
2023/07/14 05:11:23;;;;;;;2.67;1.08;;;22.30;44.00;;;;;;4978840;28;20037;-67
2023/07/14 05:13:54;;;;;;;3.85;1.27;;;22.20;44.40;;;;;;4977431;28;20026;-67
2023/07/14 05:16:21;;;;;;;2.78;0.82;;;22.20;44.80;;;;;;4979611;28;20065;-67
2023/07/14 05:18:49;;;;;;;3.97;0.95;;;22.20;44.80;;;;;;4980206;28;20027;-68
2023/07/14 05:21:16;;;;;;;3.00;1.10;;;22.10;45.20;;;;;;4975066;28;20022;-68
2023/07/14 05:23:44;;;;;;;2.00;0.90;;;22.10;45.40;;;;;;4973756;28;20045;-68
2023/07/14 05:26:11;;;;;;;2.75;0.95;;;22.20;45.20;;;;;;4978599;28;20081;-67
2023/07/14 05:28:38;;;;;;;1.42;0.80;;;22.10;45.40;;;;;;4975296;28;20031;-68
2023/07/14 05:31:09;;;;;;;3.28;0.95;;;22.00;45.60;;;;;;4978102;28;20384;-68
2023/07/14 05:33:36;;;;;;;3.35;1.20;;;22.10;45.70;;;;;;4975456;28;20485;-68
2023/07/14 05:36:04;;;;;;;2.28;1.00;;;22.10;45.60;;;;;;4977189;28;20062;-69
2023/07/14 05:38:31;;;;;;;2.40;1.10;;;22.10;45.80;;;;;;4995800;28;20495;-68
2023/07/14 05:40:59;;;;;;;3.08;0.90;;;22.10;46.40;;;;;;4976208;28;20054;-67
2023/07/14 05:43:27;;;;;;;2.28;1.25;;;22.10;45.50;;;;;;4989624;28;20073;-67
2023/07/14 05:45:55;;;;;;;1.92;0.90;;;22.30;45.40;;;;;;4975057;28;20412;-67
2023/07/14 05:48:22;;;;;;;2.53;0.98;;;22.20;45.90;;;;;;4979716;28;20416;-67
2023/07/14 05:50:50;;;;;;;1.35;0.63;;;22.10;45.70;;;;;;4976178;28;20035;-67
2023/07/14 05:53:18;;;;;;;3.50;0.85;;;22.20;45.70;;;;;;4976508;28;20034;-68
2023/07/14 05:55:46;;;;;;;3.53;1.10;;;22.30;45.50;;;;;;4975861;28;20496;-67
2023/07/14 05:58:14;;;;;;;3.33;1.40;;;22.20;45.70;;;;;;4981167;28;20026;-67
2023/07/14 06:00:42;;;;;;;1.90;0.85;;;22.20;46.00;;;;;;4977820;28;20180;-67
2023/07/14 06:03:17;;;;;;;6.43;1.17;;;22.20;46.20;;;;;;4995089;28;20031;-68
2023/07/14 06:05:46;;;;;;;1.73;0.95;;;22.10;46.30;;;;;;4971182;28;20146;-68
2023/07/14 06:08:13;;;;;;;1.67;1.08;;;22.00;46.70;;;;;;4973603;28;20142;-69
2023/07/14 06:10:41;;;;;;;3.22;1.15;;;22.20;46.40;;;;;;4975278;28;20520;-67
2023/07/14 06:13:08;;;;;;;7.43;1.50;;;22.20;46.40;;;;;;4976624;28;20027;-68
2023/07/14 06:15:37;;;;;;;6.05;1.13;;;22.30;46.50;;;;;;4991087;28;20121;-67
2023/07/14 06:18:04;;;;;;;4.80;1.05;;;22.30;46.60;;;;;;4977037;28;20054;-68
2023/07/14 06:20:32;;;;;;;3.63;1.10;;;22.20;46.30;;;;;;4978268;28;20100;-66
2023/07/14 06:23:00;;;;;;;7.28;1.05;;;22.30;46.50;;;;;;4977168;28;20100;-68
2023/07/14 06:25:27;;;;;;;4.10;1.38;;;22.20;46.40;;;;;;4972680;28;20050;-67
2023/07/14 06:27:54;;;;;;;6.45;1.10;;;22.20;46.60;;;;;;4975272;28;20593;-68
2023/07/14 06:30:25;;;;;;;2.70;1.00;;;22.20;46.70;;;;;;4975777;28;20096;-67
2023/07/14 06:32:52;;;;;;;6.45;1.58;;;22.20;46.80;;;;;;4974345;28;20037;-67
2023/07/14 06:35:20;;;;;;;2.90;1.15;;;22.00;47.00;;;;;;4973824;28;20089;-67
2023/07/14 06:37:47;;;;;;;3.47;1.20;;;22.00;47.30;;;;;;4969638;28;20436;-69
2023/07/14 06:40:14;;;;;;;4.47;1.23;;;21.90;47.60;;;;;;4974557;28;20026;-68
2023/07/14 06:42:42;;;;;;;3.55;1.40;;;21.80;47.70;;;;;;4973311;28;20037;-66
2023/07/14 06:45:09;;;;;;;7.28;1.95;;;21.70;47.90;;;;;;4993799;28;20041;-67
2023/07/14 06:47:37;;;;;;;5.45;1.55;;;21.60;48.40;;;;;;4979693;28;20414;-68
2023/07/14 06:50:04;;;;;;;5.90;1.20;;;21.40;48.80;;;;;;4984644;28;20022;-68
2023/07/14 06:52:32;;;;;;;3.17;1.27;;;21.00;49.50;;;;;;4984473;28;20038;-68
2023/07/14 06:55:00;;;;;;;4.22;1.40;;;20.80;50.00;;;;;;4980334;28;20014;-68
2023/07/14 06:57:27;;;;;;;4.78;1.48;;;20.90;49.60;;;;;;4981092;28;20022;-67
2023/07/14 06:59:54;;;;;;;4.80;1.48;;;20.90;49.50;;;;;;4984311;28;20515;-66
2023/07/14 07:02:22;;;;;;;3.53;1.20;;;20.80;49.70;;;;;;4984991;28;20040;-66
2023/07/14 07:04:49;;;;;;;3.17;1.33;;;20.60;49.90;;;;;;4983382;28;20531;-67
2023/07/14 07:07:17;;;;;;;5.85;1.52;;;20.60;49.90;;;;;;4974566;28;20038;-67
2023/07/14 07:09:45;;;;;;;5.93;1.80;;;20.50;50.00;;;;;;4979131;28;20026;-66
2023/07/14 07:12:12;;;;;;;5.85;1.75;;;20.40;50.10;;;;;;4980655;28;20065;-66
2023/07/14 07:14:39;;;;;;;4.88;1.40;;;20.30;50.20;;;;;;4981628;28;20077;-67
2023/07/14 07:17:07;;;;;;;2.72;1.35;;;20.20;50.40;;;;;;4984188;28;20035;-67
2023/07/14 07:19:34;;;;;;;5.97;1.60;;;20.20;50.70;;;;;;4980607;28;20101;-66
2023/07/14 07:22:02;;;;;;;3.85;1.30;;;20.10;50.80;;;;;;4974236;28;21727;-68
2023/07/14 07:24:29;;;;;;;3.60;1.42;;;20.00;51.10;;;;;;4976314;28;20047;-67
2023/07/14 07:26:56;;;;;;;2.45;1.40;;;19.90;51.30;;;;;;4977622;28;20452;-67
2023/07/14 07:29:24;;;;;;;3.67;1.15;;;19.90;51.40;;;;;;4975683;28;20379;-71
2023/07/14 07:31:51;;;;;;;5.45;2.20;;;19.80;51.50;;;;;;4985139;28;20500;-67
2023/07/14 07:34:19;;;;;;;3.58;1.30;;;19.70;51.60;;;;;;4977024;28;20463;-67
2023/07/14 07:36:46;;;;;;;3.97;1.23;;;19.70;51.90;;;;;;4977155;28;20030;-68
2023/07/14 07:39:13;;;;;;;7.50;1.63;;;19.60;52.50;;;;;;4976387;28;21419;-67
2023/07/14 07:41:40;;;;;;;5.03;1.60;;;19.60;52.00;;;;;;4979756;28;20105;-67
2023/07/14 07:44:09;;;;;;;3.83;1.52;;;19.50;52.80;;;;;;4975725;28;20034;-70
2023/07/14 07:46:37;;;;;;;4.82;1.90;;;19.30;52.70;;;;;;4977792;28;20480;-70
2023/07/14 07:49:05;;;;;;;6.72;2.13;;;19.20;52.80;;;;;;4976210;28;20725;-69
2023/07/14 07:51:33;;;;;;;7.72;2.42;;;19.20;52.90;;;;;;4979022;28;20461;-69
2023/07/14 07:54:01;;;;;;;7.20;3.00;;;19.20;53.10;;;;;;4973553;28;20384;-70
2023/07/14 07:56:28;;;;;;;6.68;2.88;;;19.10;53.10;;;;;;4984110;28;20379;-70
2023/07/14 07:58:55;;;;;;;6.88;2.75;;;19.00;53.30;;;;;;5001308;28;20165;-69
2023/07/14 08:01:25;;;;;;;7.50;2.70;;;19.00;53.40;;;;;;4991060;28;20089;-69
2023/07/14 08:03:52;;;;;;;10.20;2.90;;;18.90;53.50;;;;;;4988689;28;20030;-69
2023/07/14 08:06:24;;;;;;;4.07;2.70;;;18.80;53.60;;;;;;4989818;28;20042;-69
2023/07/14 08:08:51;;;;;;;6.47;2.65;;;18.80;54.30;;;;;;4992430;28;20125;-69
2023/07/14 08:11:19;;;;;;;6.82;2.80;;;18.70;54.60;;;;;;4992367;28;20076;-68
2023/07/14 08:13:46;;;;;;;9.50;2.60;;;18.70;54.20;;;;;;4991429;28;20034;-70
2023/07/14 08:16:14;;;;;;;6.05;2.60;;;18.70;54.20;;;;;;4982650;28;20460;-68
2023/07/14 08:18:42;;;;;;;4.93;2.40;;;18.60;54.20;;;;;;4985776;28;20053;-68
2023/07/14 08:21:09;;;;;;;11.68;2.53;;;18.60;54.40;;;;;;4983167;28;20105;-69
2023/07/14 08:23:40;;;;;;;8.55;2.80;;;18.60;54.40;;;;;;4980877;28;20377;-70
2023/07/14 08:26:08;;;;;;;5.90;2.85;;;18.50;54.50;;;;;;4983371;28;20046;-70
2023/07/14 08:28:36;;;;;;;7.93;3.13;;;18.50;54.80;;;;;;4985763;28;20472;-69
2023/07/14 08:31:08;;;;;;;6.68;2.78;;;18.40;54.90;;;;;;4984578;28;20038;-69
2023/07/14 08:33:36;;;;;;;7.60;3.03;;;18.40;55.00;;;;;;4981494;28;20043;-70
2023/07/14 08:36:05;;;;;;;4.22;2.45;;;18.20;55.30;;;;;;4984614;28;20116;-69
2023/07/14 08:38:34;;;;;;;10.23;2.85;;;18.00;56.10;;;;;;4989095;28;20129;-70
2023/07/14 08:41:22;;;;;;;3.67;2.53;;;17.90;56.40;;;;;;4976155;28;20073;-69
2023/07/14 08:44:17;;;;;;;5.75;3.20;;;17.70;56.60;;;;;;4978080;28;20499;-69
2023/07/14 08:47:02;;;;;;;6.53;2.88;;;17.50;57.50;;;;;;4979694;28;20117;-70
2023/07/14 08:50:13;;;;;;;7.15;2.92;;;17.20;57.90;;;;;;4975839;28;20038;-72
2023/07/14 08:52:41;;;;;;;5.03;2.63;;;17.20;57.70;;;;;;4979592;28;20112;-70
2023/07/14 08:55:24;;;;;;;5.00;2.40;;;17.20;57.70;;;;;;4977804;28;20062;-71
2023/07/14 08:58:09;;;;;;;7.55;2.80;;;17.20;57.70;;;;;;4971960;28;20038;-70
2023/07/14 09:00:55;;;;;;;3.78;2.30;;;17.10;57.90;;;;;;4977413;28;20069;-70
2023/07/14 09:03:48;;;;;;;7.68;2.70;;;17.10;58.10;;;;;;4984556;28;20097;-70
2023/07/14 09:06:18;;;;;;;6.10;2.80;;;17.30;57.60;;;;;;4979313;28;20589;-70
2023/07/14 09:08:46;;;;;;;7.97;2.42;;;17.20;57.90;;;;;;4979358;28;20061;-69
2023/07/14 09:11:32;;;;;;;6.97;3.10;;;17.20;58.00;;;;;;4978530;28;20026;-68
2023/07/14 09:14:31;;;;;;;11.15;3.50;;;17.20;58.00;;;;;;4979397;28;20462;-69
2023/07/14 09:17:04;;;;;;;12.05;3.42;;;17.10;58.20;;;;;;4981276;28;20468;-69
2023/07/14 09:19:59;;;;;;;6.60;2.60;;;17.00;58.30;;;;;;4980427;28;20037;-69
2023/07/14 09:22:52;;;;;;;5.82;2.88;;;17.10;58.10;;;;;;4992982;28;20085;-70
2023/07/14 09:25:56;;;;;;;5.90;2.38;;;17.20;57.90;;;;;;4970098;28;20101;-70
2023/07/14 09:28:36;;;;;;;5.75;2.47;;;17.20;58.20;;;;;;4955014;28;20035;-69
2023/07/14 09:31:13;;;;;;;5.15;2.72;;;17.00;58.40;;;;;;4977026;28;20081;-69
2023/07/14 09:34:00;;;;;;;5.88;2.80;;;17.10;58.50;;;;;;4978252;28;20068;-69
2023/07/14 09:36:38;;;;;;;6.28;2.90;;;17.00;58.40;;;;;;4975720;28;20039;-69
2023/07/14 09:39:13;;;;;;;5.93;2.95;;;16.80;59.00;;;;;;4975236;28;20027;-69
2023/07/14 09:41:41;;;;;;;7.57;2.97;;;16.70;59.30;;;;;;4984051;28;20034;-70
2023/07/14 09:44:11;;;;;;;6.40;3.20;;;16.50;59.90;;;;;;4974000;28;20034;-68
2023/07/14 09:46:46;;;;;;;8.98;3.67;;;16.40;60.40;;;;;;4976496;28;20030;-70
2023/07/14 09:49:28;;;;;;;4.85;2.90;;;16.50;60.10;;;;;;4995547;28;20396;-69
2023/07/14 09:52:11;;;;;;;4.60;2.80;;;16.50;59.90;;;;;;4982584;28;20043;-69
2023/07/14 09:55:13;;;;;;;9.10;2.92;;;16.70;59.70;;;;;;4978654;28;20088;-69
2023/07/14 09:57:43;;;;;;;7.55;3.10;;;16.70;59.20;;;;;;4978289;28;20043;-70
2023/07/14 10:00:27;;;;;;;6.80;3.25;;;16.50;59.90;;;;;;4985238;28;20026;-70
2023/07/14 10:03:08;;;;;;;7.75;3.08;;;16.40;60.50;;;;;;4982000;28;20055;-69
2023/07/14 10:05:51;;;;;;;5.20;2.85;;;16.20;60.70;;;;;;4973372;28;20050;-69
2023/07/14 10:09:09;;;;;;;8.35;3.28;;;16.40;60.40;;;;;;4978818;28;20045;-69
2023/07/14 10:11:48;;;;;;;7.43;3.22;;;16.70;59.60;;;;;;4973472;28;20042;-68
2023/07/14 10:14:21;;;;;;;9.73;4.68;;;16.80;59.20;;;;;;4976055;28;20057;-69
2023/07/14 10:16:49;;;;;;;5.90;2.45;;;16.70;59.50;;;;;;4980212;28;20046;-68
2023/07/14 10:19:21;;;;;;;5.88;2.50;;;16.80;59.40;;;;;;4972922;28;20491;-69
2023/07/14 10:22:04;;;;;;;4.07;2.00;;;16.80;59.60;;;;;;4980381;28;20109;-70
2023/07/14 10:24:33;;;;;;;6.07;2.33;;;16.80;59.50;;;;;;4981056;28;20145;-69
2023/07/14 10:27:06;;;;;;;5.15;2.35;;;16.80;59.30;;;;;;4978654;28;20018;-69
2023/07/14 10:29:47;;;;;;;9.55;2.60;;;16.80;59.40;;;;;;4989040;28;20566;-72
2023/07/14 10:32:38;;;;;;;5.95;2.72;;;16.80;59.50;;;;;;4974878;28;20026;-70
2023/07/14 10:35:44;;;;;;;5.95;2.25;;;16.70;59.60;;;;;;4978699;28;20034;-70
2023/07/14 10:38:19;;;;;;;5.13;2.65;;;16.40;60.50;;;;;;4957559;28;20042;-69
2023/07/14 10:40:58;;;;;;;5.68;2.10;;;16.10;61.30;;;;;;4979479;28;20379;-72
2023/07/14 10:43:45;;;;;;;6.65;2.53;;;16.10;61.50;;;;;;4981074;28;20034;-69
2023/07/14 10:46:27;;;;;;;5.07;2.50;;;16.10;62.20;;;;;;4982011;28;20046;-68
2023/07/14 10:49:20;;;;;;;5.03;2.17;;;15.90;61.90;;;;;;4978547;28;21661;-68
2023/07/14 10:51:57;;;;;;;4.68;2.58;;;15.80;62.70;;;;;;4983320;28;20050;-68
2023/07/14 10:54:46;;;;;;;11.38;2.67;;;15.80;62.60;;;;;;4975322;28;20107;-68
2023/07/14 10:57:33;;;;;;;9.05;2.38;;;15.60;62.90;;;;;;4978632;28;20073;-68
2023/07/14 11:00:19;;;;;;;7.50;2.50;;;15.30;63.70;;;;;;5000650;28;20073;-69
2023/07/14 11:02:56;;;;;;;7.93;3.13;;;15.00;64.90;;;;;;4989847;28;20058;-72
2023/07/14 11:05:26;;;;;;;11.98;4.43;;;15.00;64.90;;;;;;4981410;28;20472;-68
2023/07/14 11:07:54;;;;;;;10.60;3.90;;;14.90;65.30;;;;;;4981282;28;20027;-74
2023/07/14 11:10:54;;;;;;;7.60;3.30;;;14.80;65.80;;;;;;4980154;28;20026;-71
2023/07/14 11:13:41;;;;;;;6.68;3.20;;;14.70;66.00;;;;;;4957638;28;20038;-71
2023/07/14 11:16:18;;;;;;;6.38;3.10;;;14.80;67.00;;;;;;4979299;28;20053;-70
2023/07/14 11:18:55;;;;;;;11.50;2.67;;;14.80;66.30;;;;;;4981401;28;20030;-71
2023/07/14 11:21:23;;;;;;;9.13;3.00;;;14.80;66.30;;;;;;4981108;28;20113;-71
2023/07/14 11:24:06;;;;;;;5.90;2.70;;;14.80;66.10;;;;;;4978670;28;20118;-69
2023/07/14 11:26:53;;;;;;;8.65;2.83;;;14.80;66.50;;;;;;4980619;28;20057;-68
2023/07/14 11:29:22;;;;;;;8.07;3.22;;;14.70;67.10;;;;;;4999567;28;20034;-69
2023/07/14 11:31:57;;;;;;;6.38;3.05;;;14.80;66.60;;;;;;4987512;28;20108;-70
2023/07/14 11:34:34;;;;;;;5.38;3.22;;;14.70;67.20;;;;;;4979897;28;20046;-70
2023/07/14 11:37:34;;;;;;;4.72;2.80;;;14.90;66.90;;;;;;4981802;28;20475;-70
2023/07/14 11:40:08;;;;;;;4.22;2.65;;;15.00;66.30;;;;;;4982929;28;20089;-70
2023/07/14 11:42:38;;;;;;;5.30;2.60;;;14.80;66.80;;;;;;4990331;28;20027;-69
2023/07/14 11:45:21;;;;;;;4.75;2.47;;;14.70;67.70;;;;;;4977366;28;20070;-69
2023/07/14 11:47:50;;;;;;;7.00;2.83;;;14.60;67.80;;;;;;4981950;28;20128;-69
2023/07/14 11:50:17;;;;;;;3.85;2.53;;;14.40;68.30;;;;;;4982817;28;20495;-70
2023/07/14 11:53:05;;;;;;;6.10;2.88;;;14.20;69.20;;;;;;4983677;28;20369;-69
2023/07/14 11:55:36;;;;;;;7.80;2.60;;;14.20;70.20;;;;;;4973538;28;20100;-69
2023/07/14 11:58:18;;;;;;;8.77;2.83;;;14.30;69.40;;;;;;4975216;28;20082;-69
2023/07/14 12:00:59;;;;;;;6.18;2.88;;;14.10;69.90;;;;;;4979043;28;20473;-68
2023/07/14 12:03:35;;;;;;;5.65;2.95;;;14.20;70.20;;;;;;4980133;28;20089;-68
2023/07/14 12:06:14;;;;;;;6.45;2.90;;;14.40;69.20;;;;;;4977748;28;20054;-68
2023/07/14 12:08:43;;;;;;;5.88;2.83;;;14.30;69.80;;;;;;4984120;28;20089;-68
2023/07/14 12:11:43;;;;;;;8.13;2.95;;;14.40;69.50;;;;;;4985723;28;20126;-69
2023/07/14 12:14:45;;;;;;;7.63;2.92;;;14.40;69.40;;;;;;4986392;28;20022;-68
2023/07/14 12:17:43;;;;;;;11.82;3.97;;;14.10;70.70;;;;;;4981371;28;20037;-68
2023/07/14 12:20:14;;;;;;;9.02;4.05;;;14.00;71.10;;;;;;4984846;28;20492;-69
2023/07/14 12:22:49;;;;;;;9.43;4.25;;;13.80;71.70;;;;;;4989625;28;20035;-69
2023/07/14 12:25:17;;;;;;;9.43;4.35;;;13.60;72.70;;;;;;4975494;28;20057;-69
2023/07/14 12:27:54;;;;;;;11.05;4.93;;;13.50;73.30;;;;;;4972047;28;20058;-71
2023/07/14 12:30:28;;;;;;;9.52;4.78;;;13.50;73.90;;;;;;4978376;28;20089;-67
2023/07/14 12:33:06;;;;;;;7.00;4.85;;;13.40;74.20;;;;;;4990652;28;20081;-69
2023/07/14 12:35:36;;;;;;;6.07;3.92;;;13.20;74.80;;;;;;4977804;28;20070;-69
2023/07/14 12:38:14;;;;;;;9.05;4.43;;;13.10;75.20;;;;;;4986936;28;20034;-69
2023/07/14 12:40:41;;;;;;;9.27;4.95;;;13.10;76.10;;;;;;4981109;28;20042;-68
2023/07/14 12:43:25;;;;;;;8.05;5.57;;;13.20;76.00;;;;;;4984571;28;20387;-68
2023/07/14 12:45:53;;;;;;;8.73;4.57;;;13.30;76.10;;;;;;4979681;28;20583;-68
2023/07/14 12:48:24;;;;;;;10.63;4.50;;;13.30;75.40;;;;;;4976412;28;20058;-68
2023/07/14 12:50:51;;;;;;;9.25;4.57;;;13.10;76.20;;;;;;4982268;28;20081;-69
2023/07/14 12:53:18;;;;;;;8.20;4.20;;;12.90;76.40;;;;;;4985233;28;20034;-68
2023/07/14 12:55:46;;;;;;;9.15;4.40;;;12.70;77.70;;;;;;4980305;28;20034;-68
2023/07/14 12:58:24;;;;;;;5.95;3.90;;;12.40;78.60;;;;;;4985217;28;20058;-68
2023/07/14 13:00:56;;;;;;;8.10;3.65;;;12.40;79.50;;;;;;4984124;28;20038;-70
2023/07/14 13:03:24;;;;;;;9.63;4.20;;;12.30;80.00;;;;;;4988405;28;20026;-67
2023/07/14 13:05:52;;;;;;;11.77;5.53;;;12.20;80.30;;;;;;4996530;28;20038;-70
2023/07/14 13:08:23;;;;;;;16.70;6.20;;;12.20;81.20;;;;;;4983652;28;20042;-68
2023/07/14 13:10:51;;;;;;;10.98;5.03;;;12.20;81.30;;;;;;4985097;28;20432;-68
2023/07/14 13:13:40;;;;;;;18.95;7.50;;;12.20;81.40;;;;;;4988332;28;20030;-68
2023/07/14 13:16:10;;;;;;;14.65;7.15;;;12.10;81.80;;;;;;4985827;28;20046;-68